Key West Nas /Boca Chica Field/ Airport
KNQX : now visible

Airfield :











YOU CAN JOIN US ON...

 
LOGIN :

Register | Disclaimer

   EN    FR    IT 

 









Legend :    VFR   Marginal VFR   IFR   Intensive IFR   Very Intensive IFR
Visi :
Ceiling :
>= 8 km
>= 3000ft
5 to 8 km
1000 to 3000 ft
1500m to 5 km
500 to 1000 ft
800 to 1500m
200 to 500 ft
< 800m
< 200 ft
Symbols :   Thunderstorms  Fog  Heavy snow  Heavy precipitations  Wind > 20 kt






- Airport Elevation : 6 ft


KNQX - Key West Nas /Boca Chica Field/

CURRENT METAR :
  • 271353Z 36018KT 10SM SCT023 BKN030 OVC080 21/15 A3012 RMK AO2 SLP199 T02110150 $

EXPIRED METARs :
  • 271253Z 34017KT 10SM SCT025 SCT080 OVC110 21/14 A3009 RMK AO2 SLP189 T02110144 $
  • 271153Z 35018KT 10SM FEW023 OVC080 21/15 A3005 RMK AO2 RAB19E29 SLP175 P0000 60000 70004 T02110150 10233 20211 51017 $
  • 271135Z 35020KT 10SM SCT020 BKN024 OVC110 21/16 A3005 RMK AO2 RAB19E29 P0000 T02110156 $

TAF AMD TAF KNQX
Valid from the 27 at 11:00 until the 28 at 07:00 UTC


2711/2807 34018G28KT 9999 FEW015 BKN020 OVC110 QNH2998INS
BECMG 2314/2316 9999 VCSH SCT015 BKN020 OVC110 QNH2996INS
FM272300 35012KT 9999 SCT030 BKN100 QNH2997INS
FM280100 35012KT 9999 FEW040 SCT100 QNH2999INS T22/2711Z T20/2706Z AMD 1122 FN00216



MET'MAP, your aeronautical weather chart ! - Copyright ORBIFLY December 2007 - Disclaimer

ORBIFLY MET'MAP TEAM :

Programming & Development : Alexandra Zaïnal
Concept & original design : Baudouin d'Aumeries
Assistance for programming : Marc-Olivier Méhu
Technical & hardware support : Manuel Goepfert

Contact : metmap@orbifly.com




SOURCES & CREDITS :

   NOAA       Earth
Advisory